Scroll down
FLIGHT INFORMATION
El Al Israel Airlines

ELY2201

At Arrival Gate

KSFO
 LLBG
DATE: 2020-07-25
GATE:  -
GATE DEPARTURE: 14:22
TAKEOFF: 14:27
DATE: 2020-07-26
GATE:  -
LANDING: 03:44
GATE ARRIVAL: 03:49
FLIGHT DATA
Speed: 
509 kts
Altitude: 
43,019 ft
Stage Length: 
6,436.7 nm
Block Time: 
13.5 hrs
Flight Time: 
13.3 hrs
Fuel Used: 
273,514 lb
Cleared Route: KSFO ORRCA FMG GASSI KU72I KU84K KU03M WLLES 55N02 YEK 6584N 6870N BOPUT 6960N 6950N 6840N 6630N 6420N 6210N GUNPA NIROD VADIN ELVIX KOLOB PEPOX BAREX NAXAR KELEL KEKED BADOR APROB ADORU ATVEP ULMAR EKI YAYLA KUDAK ESKIN KULAR NESIL LAMSA EDISI TOMBI IDAKU PIKOG ZUKKO LLBG
TRACK DATA
50,000 ft 1,000 kts
AIRCRAFT INFO AND CUMULATIVE STATS
Aircraft Type: 
B744F
Registration: 
SELCAL: 
ELBS
MSN/LN: 
26563 / 1036
Operator: 
Total Flights: 
4
Total Block Time: 
17 hrs
Total Flight Time: 
16.4 hrs
Total Fuel Time: 
346,025 lb
DATALINK LOG | Newest first | Current as of: 2020-11-29 02:14:45
LABEL SEQUENCE CONTENT Dn/Up
QD514803:49 87▼ Dn
QC464303:44▼ Dn
GA2219ADVANCED GATE ASSIGNMENTS NOT YET AVAILABLE AT THIS AIRPORT▲ Up
GR2219LLBG 03:42 MAAS YP/UM WCHR/S/C HI-VAL YES DIPL/VIP NO▼ Dn
2U3329LLBG 260220Z 14004KT 9999 BKN015 25/21 Q1006 NOSIG▲ Up
2S3634LLBG▼ Dn
UM203647CLEARED TO FL 430▲ Up
DM63637REQUEST FL 430 DUE TO A/C PERF▼ Dn
5R1620GUNPA 23:00z FL370 NIROD 23:41z VADIN M0.86 74.9 -16 216/20 RW12 03:38z▼ Dn
GA1620ADVANCED GATE ASSIGNMENTS NOT YET AVAILABLE AT THIS AIRPORT▲ Up
GR1620LLBG 03:38 MAAS YP/UM WCHR/S/C HI-VAL YES DIPL/VIP NO▼ Dn
UM201428CLEARED TO FL 410▲ Up
DM61418REQUEST FL 410 DUE TO A/C PERF▼ Dn
UM201226CLEARED TO FL 430▲ Up
DM61216REQUEST FL 430 DUE TO A/C PERF▼ Dn
UM0 UM191024UNABLE. MAINTAIN ASSIGNED ALTITUDE▲ Up
DM61014REQUEST FL 450 DUE TO A/C PERF▼ Dn
5U5648LLBG 260147Z VRB03KT 9999 BKN015) 27/23 Q1006▲ Up
5S5905LLBG▼ Dn
UM201937CLEARED TO FL 410▲ Up
DM61927REQUEST FL 410 DUE TO A/C PERF▼ Dn
2U2539LLBG 251650Z 31007KT 9999 FEW017 28/23 Q1005 NOSIG▲ Up
2S2746LLBG▼ Dn
UM1060336MAINTAIN MACH 0.85 DUE TO A/C PERF▲ Up
DM180326REQUEST M0.85 DUE TO A/C PERF▼ Dn
UM200236CLEARED TO FL 370▲ Up
DM60226REQUEST FL 370 DUE TO A/C PERF▼ Dn
UM200235CLEARED TO FL 370▲ Up
DM60225REQUEST FL 370▼ Dn
QB295314:27▼ Dn
QA244814:22 360.5▼ Dn
A31549CLEARED TO LLBG VIA TRUKN2 ORRCA FMG J7 GASSI KU72I KU84K KU03M WLLES 55N102W YEK 65N084W 68N070W BOPUT 69N060W 69N050W 68N040W 66N030W 64N020W 62N010W GUNPA NIROD VADIN ELVIX KOLOB PEPOX BAREX NAXAR KELEL KEKED BADOR APROB ADORU UN739 EKI UW81 ESKIN UL854 KULAR UT39 TOMBI IDAKU L35 PIKOG L609 ZUKKO NINET1. SQUAWK .▲ Up
Q01438[LINK ACK]▲ Up
Q01438[LINK TEST]▼ Dn


AIRCRAFT HISTORY
FLIGHT DATE FLIGHT NO. ORIGIN DESTINATION CLEARED ROUTE BLOCK TIME FLIGHT TIME FUEL USED PILOT
2020-07-27ELY2201LCLK LLBG LCLK BOSIS EMEDA LLBG0.9 hrs0.8 hrs18,779 lbRoberto Stopnicki
2020-07-27ELY727LLBG LCLK LLBG MATOV ORLEV TAPUZ KESEF YUVAL JILET DAFNA VELOX EMEDA BOSIS LCLK0.9 hrs0.7 hrs19,410 lbChris Makris
2020-07-25ELY2201KSFO LLBG KSFO ORRCA FMG GASSI KU72I KU84K KU03M WLLES 55N02 YEK 6584N 6870N BOPUT 6960N 6950N 6840N 6630N 6420N 6210N GUNPA NIROD VADIN ELVIX KOLOB PEPOX BAREX NAXAR KELEL KEKED BADOR APROB ADORU ATVEP ULMAR EKI YAYLA KUDAK ESKIN KULAR NESIL LAMSA EDISI TOMBI IDAKU PIKOG ZUKKO LLBG13.5 hrs13.3 hrs273,514 lbRoberto Stopnicki
2020-07-23ELY2201KMZJ KSFO KMZJ TFD BXK RUSME DYAMD LAANE ALWYS HEFLY ARRTU ADDMM COGGR BERKS CCR RW19L1.7 hrs1.6 hrs34,323 lbRoberto Stopnicki